Aviation Digital Data Service (ADDS)

Output produced by METARs form (0524 UTC 16 February 2019)
found at http://www.aviationweather.gov/metar/data/
 
METAR text: VTUL 160500Z VRB03KT 3500 HZ FEW030 31/21 Q1014 NOSIG
Conditions at: VTUL (LOEI , TH) observed 0500 UTC 16 February 2019
Temperature: 31.0°C (88°F)
Dewpoint: 21.0°C (70°F) [RH = 55%]
Pressure (altimeter): 29.94 inches Hg (1014.0 mb)
Winds: variable direction winds at 3 MPH (3 knots; 1.5 m/s)
Visibility: 2.17 miles (3.49 km)
Ceiling: at least 12,000 feet AGL
Clouds: few clouds at 3000 feet AGL
Weather: HZ  (haze)

METAR text: VTUL 160400Z VRB03KT 3000 HZ FEW030 SCT100 29/21 Q1016 BECMG TL0500 4000 HZ
Conditions at: VTUL (LOEI , TH) observed 0400 UTC 16 February 2019
Temperature: 29.0°C (84°F)
Dewpoint: 21.0°C (70°F) [RH = 62%]
Pressure (altimeter): 30.00 inches Hg (1016.0 mb)
Winds: variable direction winds at 3 MPH (3 knots; 1.5 m/s)
Visibility: 1.86 miles (2.99 km)
Ceiling: at least 12,000 feet AGL
Clouds: few clouds at 3000 feet AGL
scattered clouds at 10000 feet AGL
Weather: HZ  (haze)

METAR text: VTUL 160300Z 01004KT 350V050 3500 BR FEW030 BKN100 26/21 Q1017 NOSIG
Conditions at: VTUL (LOEI , TH) observed 0300 UTC 16 February 2019
Temperature: 26.0°C (79°F)
Dewpoint: 21.0°C (70°F) [RH = 74%]
Pressure (altimeter): 30.03 inches Hg (1017.0 mb)
Winds: from the N (10 degrees) at 5 MPH (4 knots; 2.1 m/s)
Visibility: 2.17 miles (3.49 km)
Ceiling: 10000 feet AGL
Clouds: few clouds at 3000 feet AGL
broken clouds at 10000 feet AGL
Weather: BR  (mist)

METAR text: VTUL 160200Z 00000KT 3500 BR FEW030 24/22 Q1017 NOSIG
Conditions at: VTUL (LOEI , TH) observed 0200 UTC 16 February 2019
Temperature: 24.0°C (75°F)
Dewpoint: 22.0°C (72°F) [RH = 89%]
Pressure (altimeter): 30.03 inches Hg (1017.0 mb)
Winds: calm
Visibility: 2.17 miles (3.49 km)
Ceiling: at least 12,000 feet AGL
Clouds: few clouds at 3000 feet AGL
Weather: BR  (mist)

METAR text: VTUL 160100Z VRB02KT 2500 -RA BR SCT025 BKN065 23/22 Q1016 BECMG TL0200 3000 -RA BR
Conditions at: VTUL (LOEI , TH) observed 0100 UTC 16 February 2019
Temperature: 23.0°C (73°F)
Dewpoint: 22.0°C (72°F) [RH = 94%]
Pressure (altimeter): 30.00 inches Hg (1016.0 mb)
Winds: variable direction winds at 2 MPH (2 knots; 1.0 m/s)
Visibility: 1.55 miles (2.49 km)
Ceiling: 6500 feet AGL
Clouds: scattered clouds at 2500 feet AGL
broken clouds at 6500 feet AGL
Weather: -RA BR  (light rain, mist)

METAR text: VTUL 160000Z 27003KT 3000 BR SCT025 OVC100 22/21 Q1016 BECMG TL0200 4000 BR
Conditions at: VTUL (LOEI , TH) observed 0000 UTC 16 February 2019
Temperature: 22.0°C (72°F)
Dewpoint: 21.0°C (70°F) [RH = 94%]
Pressure (altimeter): 30.00 inches Hg (1016.0 mb)
Winds: from the W (270 degrees) at 3 MPH (3 knots; 1.5 m/s)
Visibility: 1.86 miles (2.99 km)
Ceiling: 10000 feet AGL
Clouds: scattered clouds at 2500 feet AGL
overcast cloud deck at 10000 feet AGL
Weather: BR  (mist)

METAR text: VTUL 152300Z 00000KT 3500 BR NSC 22/21 Q1015 NOSIG
Conditions at: VTUL (LOEI , TH) observed 2300 UTC 15 February 2019
Temperature: 22.0°C (72°F)
Dewpoint: 21.0°C (70°F) [RH = 94%]
Pressure (altimeter): 29.97 inches Hg (1015.0 mb)
Winds: calm
Visibility: 2.17 miles (3.49 km)
Ceiling: at least 12,000 feet AGL
Clouds: sky clear below 12,000 feet AGL
Weather: BR  (mist)

METAR text: VTUL 151200Z 00000KT 5000 BR FEW030 SCT100 27/22 Q1013 NOSIG
Conditions at: VTUL (LOEI , TH) observed 1200 UTC 15 February 2019
Temperature: 27.0°C (81°F)
Dewpoint: 22.0°C (72°F) [RH = 74%]
Pressure (altimeter): 29.91 inches Hg (1013.0 mb)
Winds: calm
Visibility: 3 miles ( 5 km)
Ceiling: at least 12,000 feet AGL
Clouds: few clouds at 3000 feet AGL
scattered clouds at 10000 feet AGL
Weather: BR  (mist)

METAR text: VTUL 151100Z VRB02KT 5000 HZ FEW030 BKN100 29/21 Q1012 NOSIG
Conditions at: VTUL (LOEI , TH) observed 1100 UTC 15 February 2019
Temperature: 29.0°C (84°F)
Dewpoint: 21.0°C (70°F) [RH = 62%]
Pressure (altimeter): 29.88 inches Hg (1012.0 mb)
Winds: variable direction winds at 2 MPH (2 knots; 1.0 m/s)
Visibility: 3 miles ( 5 km)
Ceiling: 10000 feet AGL
Clouds: few clouds at 3000 feet AGL
broken clouds at 10000 feet AGL
Weather: HZ  (haze)

METAR text: VTUL 151000Z 00000KT 5000 HZ FEW030 SCT100 31/20 Q1012 NOSIG
Conditions at: VTUL (LOEI , TH) observed 1000 UTC 15 February 2019
Temperature: 31.0°C (88°F)
Dewpoint: 20.0°C (68°F) [RH = 52%]
Pressure (altimeter): 29.88 inches Hg (1012.0 mb)
Winds: calm
Visibility: 3 miles ( 5 km)
Ceiling: at least 12,000 feet AGL
Clouds: few clouds at 3000 feet AGL
scattered clouds at 10000 feet AGL
Weather: HZ  (haze)

METAR text: VTUL 150900Z VRB03KT 5000 HZ FEW030 SCT100 33/19 Q1012 NOSIG
Conditions at: VTUL (LOEI , TH) observed 0900 UTC 15 February 2019
Temperature: 33.0°C (91°F)
Dewpoint: 19.0°C (66°F) [RH = 44%]
Pressure (altimeter): 29.88 inches Hg (1012.0 mb)
Winds: variable direction winds at 3 MPH (3 knots; 1.5 m/s)
Visibility: 3 miles ( 5 km)
Ceiling: at least 12,000 feet AGL
Clouds: few clouds at 3000 feet AGL
scattered clouds at 10000 feet AGL
Weather: HZ  (haze)

METAR text: VTUL 150800Z VRB03KT 5000 HZ FEW030 SCT100 33/19 Q1012 NOSIG
Conditions at: VTUL (LOEI , TH) observed 0800 UTC 15 February 2019
Temperature: 33.0°C (91°F)
Dewpoint: 19.0°C (66°F) [RH = 44%]
Pressure (altimeter): 29.88 inches Hg (1012.0 mb)
Winds: variable direction winds at 3 MPH (3 knots; 1.5 m/s)
Visibility: 3 miles ( 5 km)
Ceiling: at least 12,000 feet AGL
Clouds: few clouds at 3000 feet AGL
scattered clouds at 10000 feet AGL
Weather: HZ  (haze)

METAR text: VTUL 150700Z 16004KT 070V240 5000 HZ FEW030 33/19 Q1013 NOSIG
Conditions at: VTUL (LOEI , TH) observed 0700 UTC 15 February 2019
Temperature: 33.0°C (91°F)
Dewpoint: 19.0°C (66°F) [RH = 44%]
Pressure (altimeter): 29.91 inches Hg (1013.0 mb)
Winds: from the SSE (160 degrees) at 5 MPH (4 knots; 2.1 m/s)
Visibility: 3 miles ( 5 km)
Ceiling: at least 12,000 feet AGL
Clouds: few clouds at 3000 feet AGL
Weather: HZ  (haze)

METAR text: VTUL 150600Z VRB03KT 5000 HZ FEW030 SCT100 32/20 Q1014 NOSIG
Conditions at: VTUL (LOEI , TH) observed 0600 UTC 15 February 2019
Temperature: 32.0°C (90°F)
Dewpoint: 20.0°C (68°F) [RH = 49%]
Pressure (altimeter): 29.94 inches Hg (1014.0 mb)
Winds: variable direction winds at 3 MPH (3 knots; 1.5 m/s)
Visibility: 3 miles ( 5 km)
Ceiling: at least 12,000 feet AGL
Clouds: few clouds at 3000 feet AGL
scattered clouds at 10000 feet AGL
Weather: HZ  (haze)

METAR text: VTUL 150500Z VRB03KT 5000 HZ NSC 30/21 Q1016 NOSIG
Conditions at: VTUL (LOEI , TH) observed 0500 UTC 15 February 2019
Temperature: 30.0°C (86°F)
Dewpoint: 21.0°C (70°F) [RH = 59%]
Pressure (altimeter): 30.00 inches Hg (1016.0 mb)
Winds: variable direction winds at 3 MPH (3 knots; 1.5 m/s)
Visibility: 3 miles ( 5 km)
Ceiling: at least 12,000 feet AGL
Clouds: sky clear below 12,000 feet AGL
Weather: HZ  (haze)

METAR text: VTUL 150400Z VRB03KT 4500 HZ SCT030 29/21 Q1017 NOSIG
Conditions at: VTUL (LOEI , TH) observed 0400 UTC 15 February 2019
Temperature: 29.0°C (84°F)
Dewpoint: 21.0°C (70°F) [RH = 62%]
Pressure (altimeter): 30.03 inches Hg (1017.0 mb)
Winds: variable direction winds at 3 MPH (3 knots; 1.5 m/s)
Visibility: 2.80 miles (4.51 km)
Ceiling: at least 12,000 feet AGL
Clouds: scattered clouds at 3000 feet AGL
Weather: HZ  (haze)

METAR text: VTUL 150300Z 01004KT 290V070 4500 BR FEW030 26/21 Q1017 NOSIG
Conditions at: VTUL (LOEI , TH) observed 0300 UTC 15 February 2019
Temperature: 26.0°C (79°F)
Dewpoint: 21.0°C (70°F) [RH = 74%]
Pressure (altimeter): 30.03 inches Hg (1017.0 mb)
Winds: from the N (10 degrees) at 5 MPH (4 knots; 2.1 m/s)
Visibility: 2.80 miles (4.51 km)
Ceiling: at least 12,000 feet AGL
Clouds: few clouds at 3000 feet AGL
Weather: BR  (mist)

METAR text: VTUL 150200Z 01003KT 330V060 4000 BR NSC 24/22 Q1017 NOSIG
Conditions at: VTUL (LOEI , TH) observed 0200 UTC 15 February 2019
Temperature: 24.0°C (75°F)
Dewpoint: 22.0°C (72°F) [RH = 89%]
Pressure (altimeter): 30.03 inches Hg (1017.0 mb)
Winds: from the N (10 degrees) at 3 MPH (3 knots; 1.5 m/s)
Visibility: 2.49 miles (4.01 km)
Ceiling: at least 12,000 feet AGL
Clouds: sky clear below 12,000 feet AGL
Weather: BR  (mist)

METAR text: VTUL 150100Z VRB02KT 4000 BR NSC 21/20 Q1016 NOSIG
Conditions at: VTUL (LOEI , TH) observed 0100 UTC 15 February 2019
Temperature: 21.0°C (70°F)
Dewpoint: 20.0°C (68°F) [RH = 94%]
Pressure (altimeter): 30.00 inches Hg (1016.0 mb)
Winds: variable direction winds at 2 MPH (2 knots; 1.0 m/s)
Visibility: 2.49 miles (4.01 km)
Ceiling: at least 12,000 feet AGL
Clouds: sky clear below 12,000 feet AGL
Weather: BR  (mist)

METAR text: VTUL 150000Z 00000KT 3000 BR NSC 20/20 Q1016 BECMG TL0100 4000 BR
Conditions at: VTUL (LOEI , TH) observed 0000 UTC 15 February 2019
Temperature: 20.0°C (68°F)
Dewpoint: 20.0°C (68°F) [RH = 100%]
Pressure (altimeter): 30.00 inches Hg (1016.0 mb)
Winds: calm
Visibility: 1.86 miles (2.99 km)
Ceiling: at least 12,000 feet AGL
Clouds: sky clear below 12,000 feet AGL
Weather: BR  (mist)

METAR text: VTUL 142300Z VRB02KT 3000 BR NSC 20/20 Q1015 BECMG TL0100 4000 BR
Conditions at: VTUL (LOEI , TH) observed 2300 UTC 14 February 2019
Temperature: 20.0°C (68°F)
Dewpoint: 20.0°C (68°F) [RH = 100%]
Pressure (altimeter): 29.97 inches Hg (1015.0 mb)
Winds: variable direction winds at 2 MPH (2 knots; 1.0 m/s)
Visibility: 1.86 miles (2.99 km)
Ceiling: at least 12,000 feet AGL
Clouds: sky clear below 12,000 feet AGL
Weather: BR  (mist)

Forecast for: VTUL (LOEI , TH)
Text: TAF VTUL 152300Z 1600/1624 VRB02KT 3000 BR FEW030
Forecast period: 0000 to 0400 UTC 16 February 2019
Forecast type: FROM: standard forecast or significant change
Winds: variable direction winds at 2 MPH (2 knots; 1.0 m/s)
Visibility: 1.86 miles (2.99 km)
Ceiling: at least 12,000 feet AGL
Clouds: few clouds at 3000 feet AGL
Weather: BR  (mist)
Text: BECMG 1604/1606 7000 NSW
Forecast period: 0400 UTC 16 February 2019 to 0000 UTC 17 February 2019
Forecast type: BECOMING: Conditions expected to become as follows by 0600 UTC 16 February 2019
Winds: variable direction winds at 2 MPH (2 knots; 1.0 m/s)
Visibility: 4 miles (7 km)
Ceiling: at least 12,000 feet AGL
Clouds: few clouds at 3000 feet AGL
Weather: NSW  (no significant weather)
Text: TEMPO 1612/1617 5000 TSRA FEW020CB
Forecast period: 1200 to 1700 UTC 16 February 2019
Forecast type: TEMPORARY: The following changes expected for less than half the time period
Visibility: 3 miles (5 km)
Ceiling: at least 12,000 feet AGL
Clouds: few clouds at 2000 feet AGL
Weather: TSRA  (rain associated with thunderstorm(s))